Time;durP1;ratioP1;P1;durP2;ratioP2;P2;SDS_P1;SDS_P2;PMS_P1;PMS_P2;Temp;Humidity;BMP_temperature;BMP_pressure;BME280_temperature;BME280_humidity;BME280_pressure;Samples;Min_cycle;Max_cycle;Signal;HPM_P1;HPM_P2
2022/07/11 00:00:08;;;;;;;6.82;2.47;;;16.90;99.90;;;;;;5082539;28;20029;-65
2022/07/11 00:02:34;;;;;;;7.32;2.20;;;17.00;99.90;;;;;;5065270;28;20051;-66
2022/07/11 00:05:01;;;;;;;6.97;2.22;;;16.90;99.90;;;;;;5072888;28;20117;-66
2022/07/11 00:07:28;;;;;;;8.82;2.58;;;16.90;99.90;;;;;;5070577;28;20051;-65
2022/07/11 00:09:53;;;;;;;3.67;2.45;;;16.90;99.90;;;;;;5070609;28;20029;-65
2022/07/11 00:12:21;;;;;;;4.07;2.03;;;16.90;99.90;;;;;;5074054;28;20094;-65
2022/07/11 00:14:47;;;;;;;6.25;2.35;;;16.90;99.90;;;;;;5072072;28;20089;-63
2022/07/11 00:17:13;;;;;;;5.80;2.65;;;16.80;99.90;;;;;;5063924;28;20060;-64
2022/07/11 00:19:39;;;;;;;5.40;2.30;;;16.90;99.90;;;;;;5084613;28;20028;-64
2022/07/11 00:22:06;;;;;;;6.88;2.60;;;16.80;99.90;;;;;;5075400;28;20041;-65
2022/07/11 00:24:32;;;;;;;4.75;2.50;;;16.80;99.90;;;;;;5077213;28;20067;-65
2022/07/11 00:26:57;;;;;;;8.68;2.50;;;16.80;99.90;;;;;;5082510;28;20067;-65
2022/07/11 00:29:23;;;;;;;9.85;3.00;;;16.80;99.90;;;;;;5066699;28;20509;-63
2022/07/11 00:31:49;;;;;;;6.20;2.60;;;16.80;99.90;;;;;;5072268;28;20043;-66
2022/07/11 00:34:15;;;;;;;6.00;2.63;;;16.80;99.90;;;;;;5085337;28;20071;-65
2022/07/11 00:36:41;;;;;;;5.40;2.45;;;16.80;99.90;;;;;;5085529;28;20067;-62
2022/07/11 00:39:07;;;;;;;4.72;2.90;;;16.80;99.90;;;;;;5074073;28;20524;-65
2022/07/11 00:41:33;;;;;;;10.68;2.78;;;16.80;99.90;;;;;;5073326;28;20064;-65
2022/07/11 00:44:01;;;;;;;6.70;2.80;;;16.70;99.90;;;;;;5072057;28;20043;-64
2022/07/11 00:46:29;;;;;;;8.68;3.25;;;16.70;99.90;;;;;;5084494;28;20541;-65
2022/07/11 00:48:57;;;;;;;8.20;2.92;;;16.70;99.90;;;;;;5072672;28;20080;-65
2022/07/11 00:51:24;;;;;;;8.48;3.25;;;16.70;99.90;;;;;;5073950;28;20046;-65
2022/07/11 00:53:52;;;;;;;11.02;3.20;;;16.70;99.90;;;;;;5087345;28;20047;-63
2022/07/11 00:56:21;;;;;;;9.35;3.13;;;16.70;99.90;;;;;;5086737;28;20089;-65
2022/07/11 00:58:50;;;;;;;7.70;2.97;;;16.70;99.90;;;;;;5067322;28;20479;-64
2022/07/11 01:01:17;;;;;;;10.70;3.00;;;16.70;99.90;;;;;;5078114;28;20050;-64
2022/07/11 01:03:42;;;;;;;8.85;3.67;;;16.70;99.90;;;;;;5081424;28;20115;-65
2022/07/11 01:06:08;;;;;;;7.10;3.00;;;16.60;99.90;;;;;;5086063;28;20120;-62
2022/07/11 01:08:35;;;;;;;9.60;3.00;;;16.60;99.90;;;;;;5067505;28;20039;-64
2022/07/11 01:11:05;;;;;;;5.15;3.13;;;16.60;99.90;;;;;;5080160;28;20032;-65
2022/07/11 01:13:31;;;;;;;5.78;2.80;;;16.60;99.90;;;;;;5074645;28;20037;-64
2022/07/11 01:16:26;;;;;;;7.10;3.15;;;16.60;99.90;;;;;;5069427;28;20086;-65
2022/07/11 01:18:54;;;;;;;7.57;2.97;;;16.60;99.90;;;;;;5065317;28;20097;-65
2022/07/11 01:21:31;;;;;;;6.28;3.00;;;16.50;99.90;;;;;;5070523;28;20047;-65
2022/07/11 01:23:59;;;;;;;5.22;2.80;;;16.50;99.90;;;;;;5067500;28;20035;-62
2022/07/11 01:26:26;;;;;;;6.55;2.85;;;16.50;99.90;;;;;;5065429;28;20083;-65
2022/07/11 01:28:52;;;;;;;8.80;3.47;;;16.50;99.90;;;;;;5077988;28;20372;-65
2022/07/11 01:31:19;;;;;;;7.05;3.00;;;16.50;99.90;;;;;;5065407;28;20328;-65
2022/07/11 01:33:45;;;;;;;6.63;2.67;;;16.50;99.90;;;;;;5071904;28;20590;-65
2022/07/11 01:36:12;;;;;;;6.85;3.10;;;16.50;99.90;;;;;;5083003;28;20029;-65
2022/07/11 01:38:37;;;;;;;8.80;2.80;;;16.50;99.90;;;;;;5071440;28;20388;-65
2022/07/11 01:41:03;;;;;;;7.88;2.83;;;16.50;99.90;;;;;;5075376;28;20029;-64
2022/07/11 01:43:29;;;;;;;8.75;3.10;;;16.50;99.90;;;;;;5081118;28;20112;-65
2022/07/11 01:45:55;;;;;;;8.45;2.80;;;16.50;99.90;;;;;;5078047;28;20732;-65
2022/07/11 01:48:22;;;;;;;5.78;2.53;;;16.50;99.90;;;;;;5078549;28;20040;-62
2022/07/11 01:50:48;;;;;;;7.25;2.85;;;16.50;99.90;;;;;;5070857;28;20406;-63
2022/07/11 01:53:14;;;;;;;6.38;2.90;;;16.50;99.90;;;;;;5072548;28;20580;-65
2022/07/11 01:55:40;;;;;;;9.05;3.10;;;16.40;99.90;;;;;;5079983;28;20040;-65
2022/07/11 01:58:06;;;;;;;4.22;2.53;;;16.40;99.90;;;;;;5070114;28;20139;-64
2022/07/11 02:00:31;;;;;;;4.95;2.55;;;16.50;99.90;;;;;;5086340;28;20042;-65
2022/07/11 02:02:57;;;;;;;6.97;2.70;;;16.40;99.90;;;;;;5082234;28;20036;-65
2022/07/11 02:05:23;;;;;;;7.20;2.42;;;16.50;99.90;;;;;;5087068;28;20028;-66
2022/07/11 02:10:33;;;;;;;5.65;2.70;;;16.50;99.90;;;;;;5076570;28;20044;-65
2022/07/11 02:12:59;;;;;;;6.32;2.80;;;16.50;99.90;;;;;;5064133;28;20043;-64
2022/07/11 02:15:26;;;;;;;6.85;3.00;;;16.50;99.90;;;;;;5073171;28;20398;-65
2022/07/11 02:17:52;;;;;;;5.85;2.78;;;16.50;99.90;;;;;;5077121;28;20036;-65
2022/07/11 02:20:19;;;;;;;5.07;2.90;;;16.40;99.90;;;;;;5078592;28;20398;-65
2022/07/11 02:22:44;;;;;;;5.38;2.85;;;16.40;99.90;;;;;;5076211;28;20090;-65
2022/07/11 02:25:10;;;;;;;3.90;2.72;;;16.40;99.90;;;;;;5070697;28;20029;-64
2022/07/11 02:27:36;;;;;;;4.65;2.70;;;16.40;99.90;;;;;;5078530;28;20040;-65
2022/07/11 02:30:02;;;;;;;7.72;2.78;;;16.40;99.90;;;;;;5076489;28;20441;-65
2022/07/11 02:32:27;;;;;;;6.68;2.92;;;16.40;99.90;;;;;;5075980;28;20097;-65
2022/07/11 02:34:53;;;;;;;7.10;2.95;;;16.40;99.90;;;;;;5078095;28;20029;-65
2022/07/11 02:37:19;;;;;;;6.10;2.85;;;16.40;99.90;;;;;;5070021;28;20090;-64
2022/07/11 02:39:45;;;;;;;7.82;3.05;;;16.40;99.90;;;;;;5070664;28;20036;-64
2022/07/11 02:42:11;;;;;;;8.55;2.97;;;16.40;99.90;;;;;;5077478;28;20037;-64
2022/07/11 02:44:37;;;;;;;5.68;2.88;;;16.40;99.90;;;;;;5073253;28;20059;-65
2022/07/11 02:47:02;;;;;;;7.35;3.20;;;16.40;99.90;;;;;;5070295;28;20502;-65
2022/07/11 02:49:30;;;;;;;5.20;2.72;;;16.40;99.90;;;;;;5071860;28;20064;-65
2022/07/11 02:51:56;;;;;;;6.13;3.05;;;16.40;99.90;;;;;;5077225;28;20040;-65
2022/07/11 02:54:22;;;;;;;9.30;3.20;;;16.40;99.90;;;;;;5072001;28;20032;-65
2022/07/11 02:56:47;;;;;;;4.78;2.80;;;16.40;99.90;;;;;;5076472;28;20117;-65
2022/07/11 02:59:13;;;;;;;6.18;2.85;;;16.30;99.90;;;;;;5082476;28;20043;-65
2022/07/11 03:01:41;;;;;;;7.05;2.72;;;16.30;99.90;;;;;;5074521;28;20090;-64
2022/07/11 03:04:10;;;;;;;7.65;3.15;;;16.30;99.90;;;;;;5081193;28;20074;-65
2022/07/11 03:06:36;;;;;;;4.80;2.80;;;16.30;99.90;;;;;;5075288;28;20044;-63
2022/07/11 03:09:02;;;;;;;5.97;2.80;;;16.30;99.90;;;;;;5089580;28;20032;-64
2022/07/11 03:11:27;;;;;;;7.22;3.03;;;16.30;99.90;;;;;;5084017;28;20038;-63
2022/07/11 03:13:53;;;;;;;7.90;3.00;;;16.30;99.90;;;;;;5083638;28;20035;-63
2022/07/11 03:16:19;;;;;;;7.78;3.10;;;16.30;99.90;;;;;;5070863;28;20087;-64
2022/07/11 03:18:45;;;;;;;5.28;2.60;;;16.30;99.90;;;;;;5071765;28;20449;-63
2022/07/11 03:21:10;;;;;;;5.15;2.50;;;16.30;99.90;;;;;;5080422;28;20045;-63
2022/07/11 03:23:36;;;;;;;5.85;2.67;;;16.30;99.90;;;;;;5072538;28;20036;-63
2022/07/11 03:26:02;;;;;;;5.95;3.20;;;16.30;99.90;;;;;;5085113;28;20402;-64
2022/07/11 03:28:28;;;;;;;7.60;3.00;;;16.30;99.90;;;;;;5066576;28;20546;-64
2022/07/11 03:30:54;;;;;;;8.80;3.03;;;16.30;99.90;;;;;;5072939;28;20115;-64
2022/07/11 03:33:20;;;;;;;6.15;2.78;;;16.30;99.90;;;;;;5083601;28;20167;-64
2022/07/11 03:35:46;;;;;;;7.07;2.92;;;16.30;99.90;;;;;;5078718;28;20036;-63
2022/07/11 03:38:13;;;;;;;6.45;2.47;;;16.30;99.90;;;;;;5083195;28;20090;-64
2022/07/11 03:40:39;;;;;;;7.97;3.10;;;16.30;99.90;;;;;;5078249;28;20124;-63
2022/07/11 03:43:05;;;;;;;5.97;2.75;;;16.30;99.90;;;;;;5073972;28;20082;-63
2022/07/11 03:45:31;;;;;;;4.65;3.13;;;16.30;99.90;;;;;;5081853;28;20036;-64
2022/07/11 03:47:56;;;;;;;5.45;2.70;;;16.30;99.90;;;;;;5067328;28;20033;-63
2022/07/11 03:50:22;;;;;;;7.53;2.90;;;16.30;99.90;;;;;;5081674;28;20051;-64
2022/07/11 03:52:47;;;;;;;5.85;2.90;;;16.20;99.90;;;;;;5073741;28;20436;-63
2022/07/11 03:55:13;;;;;;;6.88;3.03;;;16.30;99.90;;;;;;5071791;28;20040;-63
2022/07/11 03:57:39;;;;;;;4.88;2.33;;;16.30;99.90;;;;;;5072714;28;20028;-63
2022/07/11 04:00:07;;;;;;;6.18;2.70;;;16.30;99.90;;;;;;5065714;28;20033;-64
2022/07/11 04:02:33;;;;;;;6.53;2.97;;;16.30;99.90;;;;;;5077717;28;20052;-63
2022/07/11 04:05:00;;;;;;;4.85;2.67;;;16.30;99.90;;;;;;5081207;28;20048;-64
2022/07/11 04:07:28;;;;;;;5.10;2.50;;;16.30;99.90;;;;;;5080847;28;20029;-63
2022/07/11 04:09:54;;;;;;;5.75;2.50;;;16.30;99.90;;;;;;5070001;28;20029;-63
2022/07/11 04:12:19;;;;;;;6.57;2.95;;;16.30;99.90;;;;;;5090439;28;20035;-64
2022/07/11 04:14:45;;;;;;;6.18;2.95;;;16.30;99.90;;;;;;5076715;28;20033;-63
2022/07/11 04:17:11;;;;;;;5.63;2.55;;;16.30;99.90;;;;;;5081263;28;20032;-63
2022/07/11 04:19:38;;;;;;;6.15;3.00;;;16.30;99.90;;;;;;5070636;28;20188;-64
2022/07/11 04:22:04;;;;;;;5.88;3.15;;;16.30;99.90;;;;;;5071073;28;20483;-63
2022/07/11 04:24:30;;;;;;;7.40;2.92;;;16.30;99.90;;;;;;5075730;28;20039;-64
2022/07/11 04:26:55;;;;;;;7.80;2.90;;;16.30;99.90;;;;;;5087984;28;20085;-64
2022/07/11 04:29:21;;;;;;;4.85;3.28;;;16.30;99.90;;;;;;5077644;28;20028;-64
2022/07/11 04:31:47;;;;;;;7.18;3.55;;;16.30;99.90;;;;;;5075693;28;20106;-63
2022/07/11 04:34:14;;;;;;;5.38;2.80;;;16.30;99.90;;;;;;5073987;28;21679;-64
2022/07/11 04:36:39;;;;;;;6.70;2.70;;;16.30;99.90;;;;;;5078212;28;20446;-64
2022/07/11 04:39:05;;;;;;;5.18;2.70;;;16.30;99.90;;;;;;5058268;28;20083;-64
2022/07/11 04:41:30;;;;;;;4.55;2.72;;;16.40;99.90;;;;;;5067451;28;20059;-64
2022/07/11 04:43:56;;;;;;;3.83;2.60;;;16.40;99.90;;;;;;5074876;28;20029;-64
2022/07/11 04:46:22;;;;;;;6.88;2.60;;;16.30;99.90;;;;;;5071361;28;20158;-64
2022/07/11 04:48:47;;;;;;;5.07;2.63;;;16.40;99.90;;;;;;5066711;28;20082;-64
2022/07/11 04:51:13;;;;;;;4.95;2.60;;;16.40;99.90;;;;;;5070065;28;20036;-64
2022/07/11 04:53:38;;;;;;;3.17;2.42;;;16.40;99.90;;;;;;5074356;28;20033;-63
2022/07/11 04:56:04;;;;;;;6.18;2.85;;;16.40;99.90;;;;;;5086120;28;20039;-64
2022/07/11 04:58:32;;;;;;;3.78;2.58;;;16.50;99.90;;;;;;5086362;28;20036;-64
2022/07/11 05:00:58;;;;;;;5.60;2.42;;;16.50;99.90;;;;;;5072845;28;20049;-64
2022/07/11 05:03:24;;;;;;;6.47;2.60;;;16.50;99.90;;;;;;5082277;28;20028;-63
2022/07/11 05:05:53;;;;;;;3.97;2.40;;;16.50;99.90;;;;;;5084905;28;20032;-63
2022/07/11 05:08:19;;;;;;;3.92;2.38;;;16.60;99.90;;;;;;5065925;28;20040;-64
2022/07/11 05:10:44;;;;;;;5.38;2.70;;;16.60;99.90;;;;;;5070172;28;20080;-63
2022/07/11 05:13:10;;;;;;;5.55;2.58;;;16.60;99.90;;;;;;5068054;28;20067;-63
2022/07/11 05:15:37;;;;;;;3.25;2.50;;;16.60;99.90;;;;;;5068564;28;20048;-63
2022/07/11 05:18:03;;;;;;;4.55;2.45;;;16.70;99.90;;;;;;5068663;28;20043;-64
2022/07/11 05:20:28;;;;;;;3.17;2.42;;;16.70;99.90;;;;;;5078406;28;20402;-63
2022/07/11 05:22:54;;;;;;;5.15;1.98;;;16.70;99.90;;;;;;5070191;28;20086;-63
2022/07/11 05:25:19;;;;;;;4.25;2.20;;;16.80;99.90;;;;;;5070568;28;20032;-64
2022/07/11 05:27:45;;;;;;;3.75;2.20;;;16.80;99.90;;;;;;5071302;28;20050;-64
2022/07/11 05:30:11;;;;;;;5.95;1.92;;;16.90;99.90;;;;;;5078810;28;20035;-63
2022/07/11 05:32:36;;;;;;;2.58;1.60;;;16.90;99.90;;;;;;5079283;28;20037;-64
2022/07/11 05:35:03;;;;;;;4.38;2.00;;;16.90;99.90;;;;;;5079186;28;20044;-63
2022/07/11 05:37:29;;;;;;;2.50;1.70;;;17.00;99.90;;;;;;5082088;28;20044;-63
2022/07/11 05:39:55;;;;;;;3.92;2.05;;;17.00;99.90;;;;;;5073082;28;20045;-64
2022/07/11 05:42:21;;;;;;;2.03;1.42;;;17.00;99.90;;;;;;5058077;28;20041;-63
2022/07/11 05:44:51;;;;;;;2.53;1.50;;;17.10;99.90;;;;;;5064693;28;20111;-63
2022/07/11 05:47:17;;;;;;;2.83;1.38;;;17.00;99.90;;;;;;5063541;28;20085;-64
2022/07/11 05:49:43;;;;;;;2.38;1.30;;;17.10;99.90;;;;;;5067615;28;20115;-63
2022/07/11 05:52:08;;;;;;;3.30;1.23;;;17.10;99.90;;;;;;5072524;28;20558;-64
2022/07/11 05:54:35;;;;;;;2.33;1.15;;;17.10;99.90;;;;;;5065094;28;20047;-64
2022/07/11 05:57:02;;;;;;;1.40;1.10;;;17.20;99.90;;;;;;5067199;28;20048;-64
2022/07/11 05:59:28;;;;;;;1.48;1.00;;;17.30;99.90;;;;;;5073721;28;20074;-64
2022/07/11 06:01:54;;;;;;;2.00;1.20;;;17.40;99.90;;;;;;5062564;28;20406;-64
2022/07/11 06:04:20;;;;;;;3.15;1.27;;;17.40;99.90;;;;;;5066253;28;20032;-64
2022/07/11 06:06:45;;;;;;;1.80;1.00;;;17.40;99.90;;;;;;5062383;28;20035;-62
2022/07/11 06:09:11;;;;;;;1.98;1.10;;;17.40;99.90;;;;;;5069467;28;20387;-62
2022/07/11 06:11:37;;;;;;;1.05;1.00;;;17.40;99.90;;;;;;5069712;28;20079;-62
2022/07/11 06:14:03;;;;;;;1.40;1.00;;;17.40;99.90;;;;;;5073222;28;20042;-66
2022/07/11 06:16:28;;;;;;;1.50;1.00;;;17.40;99.90;;;;;;5073965;28;20085;-65
2022/07/11 06:18:54;;;;;;;1.55;0.93;;;17.40;99.90;;;;;;5080766;28;20036;-62
2022/07/11 06:21:20;;;;;;;1.45;1.00;;;17.40;99.90;;;;;;5074662;28;20036;-61
2022/07/11 06:23:46;;;;;;;1.70;1.00;;;17.40;99.90;;;;;;5070650;28;20028;-61
2022/07/11 06:26:15;;;;;;;1.75;1.10;;;17.40;99.90;;;;;;5083885;28;20037;-63
2022/07/11 06:28:41;;;;;;;2.15;1.00;;;17.40;99.90;;;;;;5083054;28;20519;-62
2022/07/11 06:31:07;;;;;;;1.27;1.05;;;17.40;99.90;;;;;;5069595;28;20116;-62
2022/07/11 06:33:33;;;;;;;1.27;0.80;;;17.40;99.90;;;;;;5076529;28;20040;-62
2022/07/11 06:35:59;;;;;;;0.98;0.80;;;17.40;99.90;;;;;;5077120;28;20037;-63
2022/07/11 06:38:24;;;;;;;1.40;0.90;;;17.50;99.90;;;;;;5070057;28;20032;-61
2022/07/11 06:40:50;;;;;;;1.23;0.73;;;17.50;99.90;;;;;;5076722;28;20055;-63
2022/07/11 06:43:16;;;;;;;0.80;0.70;;;17.60;99.90;;;;;;5076492;28;20479;-63
2022/07/11 06:45:41;;;;;;;0.98;0.73;;;17.60;99.90;;;;;;5078145;28;20040;-65
2022/07/11 06:48:07;;;;;;;1.15;0.60;;;17.60;99.90;;;;;;5072874;28;20064;-67
2022/07/11 06:50:33;;;;;;;2.92;0.80;;;17.70;99.90;;;;;;5073551;28;20116;-62
2022/07/11 06:52:59;;;;;;;0.68;0.65;;;17.70;99.90;;;;;;5075194;28;20055;-63
2022/07/11 06:55:25;;;;;;;0.95;0.70;;;17.70;99.90;;;;;;5088464;28;20474;-62
2022/07/11 06:57:51;;;;;;;0.75;0.55;;;17.80;99.90;;;;;;5068892;28;20032;-62
2022/07/11 07:00:19;;;;;;;0.93;0.50;;;17.70;99.90;;;;;;5088617;28;20070;-62
2022/07/11 07:02:45;;;;;;;0.60;0.60;;;17.70;99.90;;;;;;5080154;28;20040;-62
2022/07/11 07:05:11;;;;;;;0.88;0.73;;;17.60;99.90;;;;;;5073452;28;20364;-62
2022/07/11 07:07:37;;;;;;;0.77;0.75;;;17.60;99.90;;;;;;5071341;28;20075;-62
2022/07/11 07:10:04;;;;;;;0.82;0.82;;;17.70;99.90;;;;;;5066048;28;20046;-62
2022/07/11 07:12:29;;;;;;;0.80;0.80;;;17.60;99.90;;;;;;5078150;28;20390;-65
2022/07/11 07:14:55;;;;;;;1.70;0.60;;;17.70;99.90;;;;;;5073994;28;20040;-62
2022/07/11 07:17:20;;;;;;;1.17;0.90;;;17.80;99.90;;;;;;5072718;28;20044;-62
2022/07/11 07:19:46;;;;;;;0.70;0.40;;;17.80;99.90;;;;;;5084885;28;20028;-66
2022/07/11 07:22:16;;;;;;;0.90;0.57;;;17.90;99.90;;;;;;5081335;28;20449;-62
2022/07/11 07:24:45;;;;;;;1.95;0.50;;;17.90;99.90;;;;;;5075845;28;20040;-62
2022/07/11 07:27:11;;;;;;;1.17;0.65;;;17.90;99.90;;;;;;5071755;28;20124;-64
2022/07/11 07:29:38;;;;;;;0.50;0.50;;;18.00;99.90;;;;;;5072567;28;20164;-64
2022/07/11 07:32:04;;;;;;;1.85;0.63;;;18.00;99.90;;;;;;5066430;28;20040;-62
2022/07/11 07:34:30;;;;;;;0.60;0.60;;;18.00;99.90;;;;;;5081834;28;20051;-62
2022/07/11 07:36:55;;;;;;;0.70;0.70;;;18.00;99.90;;;;;;5067832;28;20128;-62
2022/07/11 07:39:21;;;;;;;0.85;0.50;;;17.90;99.90;;;;;;5081607;28;20055;-64
2022/07/11 07:41:46;;;;;;;0.70;0.68;;;17.90;99.90;;;;;;5082856;28;20518;-62
2022/07/11 07:44:12;;;;;;;0.60;0.60;;;17.90;99.90;;;;;;5070961;28;20063;-62
2022/07/11 07:46:38;;;;;;;0.65;0.47;;;17.90;99.90;;;;;;5072823;28;20044;-63
2022/07/11 07:49:03;;;;;;;0.50;0.50;;;18.00;99.90;;;;;;5070137;28;20036;-62
2022/07/11 07:51:29;;;;;;;1.33;0.50;;;17.90;99.90;;;;;;5079537;28;20036;-68
2022/07/11 07:53:55;;;;;;;0.50;0.50;;;17.90;99.90;;;;;;5081766;28;20078;-64
2022/07/11 07:56:21;;;;;;;0.75;0.60;;;17.90;99.90;;;;;;5082896;28;20078;-66
2022/07/11 07:58:47;;;;;;;0.65;0.52;;;17.90;99.90;;;;;;5084153;28;20125;-62
2022/07/11 08:03:57;;;;;;;1.00;0.52;;;18.00;99.90;;;;;;5069460;28;20072;-62
2022/07/11 08:06:22;;;;;;;0.30;0.30;;;18.00;99.90;;;;;;5072008;28;20067;-62
2022/07/11 08:08:49;;;;;;;0.80;0.50;;;18.10;99.90;;;;;;5079523;28;20032;-63
2022/07/11 08:11:16;;;;;;;0.40;0.40;;;18.20;99.90;;;;;;5076835;28;20533;-62
2022/07/11 08:13:42;;;;;;;1.80;0.63;;;18.30;99.90;;;;;;5072279;28;20052;-65
2022/07/11 08:16:08;;;;;;;1.00;0.60;;;18.40;99.90;;;;;;5072449;28;20041;-68
2022/07/11 08:18:34;;;;;;;0.40;0.40;;;18.40;99.90;;;;;;5066387;28;20043;-62
2022/07/11 08:21:00;;;;;;;0.40;0.40;;;18.40;99.90;;;;;;5072117;28;20028;-68
2022/07/11 08:23:26;;;;;;;0.65;0.52;;;18.40;99.90;;;;;;5067327;28;20036;-65
2022/07/11 08:25:51;;;;;;;0.52;0.45;;;18.40;99.90;;;;;;5078032;28;20041;-63
2022/07/11 08:28:17;;;;;;;1.95;0.70;;;18.40;99.90;;;;;;5070615;28;20044;-63
2022/07/11 08:30:43;;;;;;;1.27;0.73;;;18.40;99.90;;;;;;5073987;28;20039;-63
2022/07/11 08:33:09;;;;;;;0.50;0.50;;;18.40;99.90;;;;;;5075027;28;20051;-64
2022/07/11 08:35:35;;;;;;;0.30;0.30;;;18.40;99.90;;;;;;5084321;28;20028;-63
2022/07/11 08:38:00;;;;;;;1.15;0.50;;;18.40;99.90;;;;;;5068077;28;20042;-66
2022/07/11 08:40:26;;;;;;;1.27;0.57;;;18.40;99.90;;;;;;5075693;28;20536;-62
2022/07/11 08:42:55;;;;;;;0.52;0.35;;;18.50;99.90;;;;;;5078712;28;20044;-62
2022/07/11 08:45:28;;;;;;;1.52;0.43;;;18.60;99.90;;;;;;5072355;28;20528;-67
2022/07/11 08:47:56;;;;;;;0.30;0.30;;;18.80;99.90;;;;;;5068380;28;20079;-63
2022/07/11 08:50:23;;;;;;;0.65;0.50;;;19.00;99.90;;;;;;5078401;28;20040;-63
2022/07/11 08:52:49;;;;;;;1.60;0.40;;;19.20;99.90;;;;;;5076556;28;20044;-66
2022/07/11 08:55:14;;;;;;;2.10;0.52;;;19.40;99.90;;;;;;5055426;28;20048;-63
2022/07/11 08:57:40;;;;;;;0.47;0.43;;;19.50;99.90;;;;;;5070598;28;20206;-63
2022/07/11 09:00:09;;;;;;;0.30;0.30;;;19.60;99.90;;;;;;5070690;28;20075;-64
2022/07/11 09:02:35;;;;;;;0.43;0.30;;;19.50;99.90;;;;;;5086570;28;20048;-63
2022/07/11 09:05:08;;;;;;;0.50;0.50;;;19.40;99.90;;;;;;5069826;28;20083;-66
2022/07/11 09:07:41;;;;;;;0.82;0.47;;;19.40;99.90;;;;;;5075205;28;20097;-64
2022/07/11 09:10:07;;;;;;;1.00;0.50;;;19.30;99.90;;;;;;5072017;28;20482;-63
2022/07/11 09:12:33;;;;;;;0.85;0.52;;;19.30;99.90;;;;;;5070674;28;20053;-64
2022/07/11 09:15:00;;;;;;;0.95;0.43;;;19.30;99.90;;;;;;5067647;28;20044;-69
2022/07/11 09:17:27;;;;;;;1.52;0.50;;;19.30;99.90;;;;;;5077599;28;20049;-69
2022/07/11 09:19:54;;;;;;;1.52;0.77;;;19.50;99.90;;;;;;5070054;28;20121;-63
2022/07/11 09:28:07;;;;;;;;;;;19.60;99.90;;;;;;5069986;28;20044;-63
2022/07/11 09:30:43;;;;;;;0.77;0.77;;;19.60;99.90;;;;;;5070840;28;20371;-63
2022/07/11 09:33:12;;;;;;;1.10;0.75;;;19.60;99.90;;;;;;5070843;28;20120;-64
2022/07/11 09:35:45;;;;;;;2.72;0.68;;;19.50;99.90;;;;;;5068990;28;20071;-65
2022/07/11 09:38:16;;;;;;;2.47;0.73;;;19.50;99.90;;;;;;5064832;28;20127;-64
2022/07/11 09:40:47;;;;;;;0.60;0.60;;;19.40;99.90;;;;;;5067695;28;20040;-63
2022/07/11 09:43:13;;;;;;;1.23;0.60;;;19.30;99.90;;;;;;5071377;28;20370;-63
2022/07/11 09:45:41;;;;;;;0.85;0.60;;;19.30;99.90;;;;;;5069336;28;20568;-63
2022/07/11 09:48:11;;;;;;;0.82;0.60;;;19.30;99.90;;;;;;5067270;28;20483;-66
2022/07/11 09:50:39;;;;;;;0.70;0.40;;;19.30;99.90;;;;;;5067742;28;20440;-63
2022/07/11 09:53:10;;;;;;;1.40;0.68;;;19.30;99.90;;;;;;5066642;28;20045;-66
2022/07/11 09:55:41;;;;;;;0.80;0.77;;;19.40;99.90;;;;;;5058227;28;20049;-63
2022/07/11 09:58:13;;;;;;;0.40;0.40;;;19.40;99.90;;;;;;5078207;28;20138;-64
2022/07/11 10:00:40;;;;;;;0.75;0.40;;;19.40;99.90;;;;;;5070077;28;20056;-63
2022/07/11 10:03:07;;;;;;;0.65;0.60;;;19.40;99.90;;;;;;5068833;28;20051;-64
2022/07/11 10:05:33;;;;;;;0.43;0.40;;;19.40;99.90;;;;;;5066007;28;20032;-63
2022/07/11 10:08:00;;;;;;;0.55;0.52;;;19.40;99.90;;;;;;5064391;28;20039;-66
2022/07/11 10:10:27;;;;;;;1.58;0.60;;;19.40;99.90;;;;;;5078164;28;20119;-64
2022/07/11 10:12:54;;;;;;;2.45;0.65;;;19.40;99.90;;;;;;5072964;28;20103;-63
2022/07/11 10:15:23;;;;;;;1.27;0.60;;;19.60;99.90;;;;;;5069856;28;20040;-63
2022/07/11 10:18:10;;;;;;;1.15;0.52;;;19.70;99.90;;;;;;5064755;28;20376;-63
2022/07/11 10:20:46;;;;;;;0.98;0.40;;;19.80;99.90;;;;;;5066822;28;20143;-63
2022/07/11 10:23:11;;;;;;;0.98;0.57;;;19.90;99.90;;;;;;5065561;28;20099;-64
2022/07/11 10:25:45;;;;;;;1.52;0.52;;;20.00;99.90;;;;;;5059076;28;20044;-63
2022/07/11 10:28:33;;;;;;;0.50;0.50;;;20.00;99.90;;;;;;5065802;28;20051;-63
2022/07/11 10:30:59;;;;;;;0.30;0.30;;;20.00;99.90;;;;;;5065425;28;20079;-66
2022/07/11 10:33:26;;;;;;;0.75;0.40;;;20.00;99.90;;;;;;5070168;28;20040;-62
2022/07/11 10:35:55;;;;;;;0.40;0.40;;;20.10;99.90;;;;;;5062850;28;20492;-67
2022/07/11 10:38:23;;;;;;;0.90;0.50;;;20.20;99.90;;;;;;5070852;28;20518;-63
2022/07/11 10:40:50;;;;;;;0.50;0.50;;;20.30;99.90;;;;;;5068388;28;20074;-63
2022/07/11 10:43:33;;;;;;;0.50;0.43;;;20.50;99.90;;;;;;5068005;28;20115;-63
2022/07/11 10:46:18;;;;;;;0.50;0.50;;;20.70;99.90;;;;;;5063731;28;20036;-63
2022/07/11 10:49:15;;;;;;;0.50;0.50;;;20.80;99.90;;;;;;5063607;28;20044;-68
2022/07/11 10:51:41;;;;;;;0.40;0.40;;;20.90;99.90;;;;;;5062880;28;20036;-63
2022/07/11 10:54:30;;;;;;;0.30;0.30;;;21.00;99.90;;;;;;5068085;28;20039;-64
2022/07/11 10:57:17;;;;;;;0.75;0.35;;;21.00;99.90;;;;;;5076399;28;20032;-69
2022/07/11 11:00:14;;;;;;;0.30;0.30;;;21.00;99.90;;;;;;5069505;28;20504;-63
2022/07/11 11:03:00;;;;;;;0.40;0.40;;;20.90;99.90;;;;;;5075475;28;20059;-63
2022/07/11 11:06:03;;;;;;;0.32;0.32;;;20.90;99.90;;;;;;5072261;28;20044;-63
2022/07/11 11:08:31;;;;;;;0.95;0.40;;;20.90;99.90;;;;;;5058851;28;20056;-64
2022/07/11 11:10:58;;;;;;;0.40;0.40;;;21.00;99.90;;;;;;5067494;28;20040;-64
2022/07/11 11:13:24;;;;;;;0.57;0.40;;;21.00;99.90;;;;;;5059465;28;20033;-63
2022/07/11 11:15:57;;;;;;;0.30;0.30;;;21.00;99.90;;;;;;5065880;28;20071;-63
2022/07/11 11:18:26;;;;;;;0.30;0.30;;;21.10;99.90;;;;;;5074293;28;20046;-69
2022/07/11 11:21:00;;;;;;;0.75;0.55;;;21.10;99.90;;;;;;5060793;28;20498;-63
2022/07/11 11:23:40;;;;;;;0.30;0.30;;;21.10;99.90;;;;;;5073621;28;20513;-64
2022/07/11 11:26:16;;;;;;;0.32;0.30;;;21.00;99.90;;;;;;5067703;28;20033;-64
2022/07/11 11:28:57;;;;;;;0.43;0.25;;;21.00;99.90;;;;;;5075474;28;20089;-63
2022/07/11 11:31:23;;;;;;;0.47;0.35;;;21.00;99.90;;;;;;5076692;28;20044;-63
2022/07/11 11:33:49;;;;;;;0.40;0.40;;;21.00;99.90;;;;;;5075103;28;20043;-63
2022/07/11 11:36:20;;;;;;;0.57;0.50;;;21.00;99.90;;;;;;5063529;28;20460;-63
2022/07/11 11:38:46;;;;;;;0.30;0.30;;;21.00;99.90;;;;;;5072017;28;20032;-64
2022/07/11 11:41:14;;;;;;;0.50;0.50;;;21.10;99.90;;;;;;5070821;28;20407;-63
2022/07/11 11:43:45;;;;;;;0.40;0.40;;;21.20;99.90;;;;;;5077643;28;20119;-63
2022/07/11 11:46:12;;;;;;;0.43;0.43;;;21.30;99.90;;;;;;5069260;28;20407;-63
2022/07/11 11:48:38;;;;;;;0.73;0.50;;;21.30;99.90;;;;;;5066090;28;20441;-66
2022/07/11 11:51:08;;;;;;;0.52;0.40;;;21.20;99.90;;;;;;5070719;28;20206;-66
2022/07/11 11:53:45;;;;;;;5.47;0.57;;;21.20;99.90;;;;;;5071075;28;20518;-64
2022/07/11 11:56:28;;;;;;;0.57;0.43;;;21.30;99.90;;;;;;5077524;28;20083;-64
2022/07/11 11:59:03;;;;;;;0.40;0.40;;;21.30;99.90;;;;;;5067819;28;20033;-70
2022/07/11 12:01:31;;;;;;;1.08;0.55;;;21.40;99.90;;;;;;5076159;28;20556;-63
2022/07/11 12:04:03;;;;;;;0.32;0.32;;;21.50;99.90;;;;;;5068763;28;20116;-63
2022/07/11 12:06:36;;;;;;;0.40;0.40;;;21.60;99.90;;;;;;5064899;28;20037;-66
2022/07/11 12:09:16;;;;;;;0.65;0.30;;;21.60;99.90;;;;;;5073901;28;20497;-67
2022/07/11 12:11:44;;;;;;;0.40;0.40;;;21.60;99.90;;;;;;5075259;28;20089;-63
2022/07/11 12:14:11;;;;;;;0.57;0.30;;;21.60;99.90;;;;;;5076592;28;20406;-63
2022/07/11 12:16:42;;;;;;;1.25;0.52;;;21.60;99.90;;;;;;5071156;28;20040;-64
2022/07/11 12:19:09;;;;;;;0.43;0.40;;;21.70;99.90;;;;;;5068185;28;20105;-63
2022/07/11 12:21:36;;;;;;;0.40;0.40;;;21.70;99.90;;;;;;5078979;28;20515;-65
2022/07/11 12:24:06;;;;;;;1.17;0.43;;;21.70;99.90;;;;;;5064809;28;20036;-63
2022/07/11 12:26:34;;;;;;;0.43;0.40;;;21.70;99.90;;;;;;5076580;28;20028;-63
2022/07/11 12:29:08;;;;;;;0.95;0.43;;;21.70;99.90;;;;;;5061980;28;20198;-63
2022/07/11 12:31:50;;;;;;;0.75;0.30;;;21.80;99.90;;;;;;5069567;28;20084;-66
2022/07/11 12:34:22;;;;;;;0.52;0.52;;;21.90;99.90;;;;;;5069875;28;20044;-63
2022/07/11 12:36:49;;;;;;;1.00;0.47;;;22.00;99.90;;;;;;5070114;28;20533;-63
2022/07/11 12:39:51;;;;;;;1.38;0.50;;;22.10;99.90;;;;;;5075765;28;20041;-63
2022/07/11 12:42:32;;;;;;;1.35;0.40;;;22.20;99.90;;;;;;5058412;28;20049;-63
2022/07/11 12:45:09;;;;;;;0.38;0.38;;;22.30;99.90;;;;;;5072670;28;20036;-64
2022/07/11 12:47:38;;;;;;;0.35;0.35;;;22.30;99.90;;;;;;5069666;28;20050;-69
2022/07/11 12:50:28;;;;;;;1.00;0.47;;;22.20;99.90;;;;;;5070039;28;20067;-63
2022/07/11 12:52:58;;;;;;;0.65;0.40;;;22.20;99.90;;;;;;5065258;28;20101;-63
2022/07/11 12:55:29;;;;;;;1.73;0.52;;;22.20;99.90;;;;;;5071044;28;20410;-66
2022/07/11 12:58:03;;;;;;;0.40;0.40;;;22.10;99.90;;;;;;5062591;28;20055;-63
2022/07/11 13:00:31;;;;;;;0.43;0.43;;;22.10;99.90;;;;;;5059959;28;20044;-63
2022/07/11 13:02:57;;;;;;;0.50;0.50;;;22.10;99.90;;;;;;5071726;28;20205;-63